createdAt,value
2023-07-29T00:00:00.609Z,16.87
2023-07-29T00:02:03.949Z,16.84
2023-07-29T00:04:07.136Z,16.80
2023-07-29T00:06:11.822Z,16.75
2023-07-29T00:08:16.237Z,16.71
2023-07-29T00:10:19.285Z,16.67
2023-07-29T00:12:22.507Z,16.62
2023-07-29T00:14:25.625Z,16.60
2023-07-29T00:16:28.723Z,16.57
2023-07-29T00:18:32.304Z,16.56
2023-07-29T00:20:35.389Z,16.55
2023-07-29T00:22:37.502Z,16.54
2023-07-29T00:24:42.675Z,16.55
2023-07-29T00:26:45.768Z,16.55
2023-07-29T00:28:48.772Z,16.56
2023-07-29T00:30:51.886Z,16.57
2023-07-29T00:32:58.054Z,16.56
2023-07-29T00:35:02.288Z,16.56
2023-07-29T00:37:07.825Z,16.56
2023-07-29T00:39:10.940Z,16.56
2023-07-29T00:41:16.572Z,16.56
2023-07-29T00:43:19.629Z,16.55
2023-07-29T00:45:23.020Z,16.57
2023-07-29T00:47:27.842Z,16.56
2023-07-29T00:49:31.326Z,16.54
2023-07-29T00:51:34.340Z,16.53
2023-07-29T00:53:37.392Z,16.52
2023-07-29T00:55:40.467Z,16.50
2023-07-29T00:57:49.329Z,16.49
2023-07-29T00:59:52.698Z,16.50
2023-07-29T01:01:57.138Z,16.51
2023-07-29T01:04:00.001Z,16.50
2023-07-29T01:06:14.765Z,16.50
2023-07-29T01:08:31.195Z,16.50
2023-07-29T01:10:45.650Z,16.50
2023-07-29T01:12:59.048Z,16.51
2023-07-29T01:15:11.293Z,16.52
2023-07-29T01:17:21.158Z,16.52
2023-07-29T01:19:52.072Z,16.53
2023-07-29T01:21:55.132Z,16.55
2023-07-29T01:24:01.716Z,16.56
2023-07-29T01:26:05.772Z,16.58
2023-07-29T01:28:10.353Z,16.58
2023-07-29T01:30:15.760Z,16.60
2023-07-29T01:32:30.189Z,16.63
2023-07-29T01:34:41.814Z,16.65
2023-07-29T01:36:47.893Z,16.66
2023-07-29T01:38:53.327Z,16.69
2023-07-29T01:40:58.907Z,16.71
2023-07-29T01:43:02.195Z,16.74
2023-07-29T01:45:05.938Z,16.78
2023-07-29T01:47:08.955Z,16.82
2023-07-29T01:49:11.963Z,16.83
2023-07-29T01:51:15.228Z,16.85
2023-07-29T01:53:18.348Z,16.86
2023-07-29T01:55:21.723Z,16.87
2023-07-29T01:57:26.641Z,16.86
2023-07-29T01:59:29.737Z,16.85
2023-07-29T02:01:32.864Z,16.83
2023-07-29T02:03:35.950Z,16.84
2023-07-29T02:05:39.023Z,16.84
2023-07-29T02:07:42.132Z,16.84
2023-07-29T02:09:45.212Z,16.83
2023-07-29T02:11:48.351Z,16.83
2023-07-29T02:13:52.950Z,16.83
2023-07-29T02:15:55.939Z,16.84
2023-07-29T02:18:00.404Z,16.88
2023-07-29T02:20:04.613Z,16.90
2023-07-29T02:22:07.734Z,16.92
2023-07-29T02:24:10.770Z,16.95
2023-07-29T02:26:13.848Z,16.97
2023-07-29T02:28:17.016Z,17.02
2023-07-29T02:30:22.295Z,17.05
2023-07-29T02:32:25.326Z,17.08
2023-07-29T02:34:28.701Z,17.11
2023-07-29T02:36:31.773Z,17.14
2023-07-29T02:38:35.590Z,17.16
2023-07-29T02:40:40.112Z,17.18
2023-07-29T02:42:43.242Z,17.22
2023-07-29T02:44:46.323Z,17.22
2023-07-29T02:46:50.770Z,17.25
2023-07-29T02:48:53.884Z,17.27
2023-07-29T02:50:56.978Z,17.28
2023-07-29T02:53:00.038Z,17.29
2023-07-29T02:55:03.085Z,17.33
2023-07-29T02:57:06.180Z,17.35
2023-07-29T02:59:09.226Z,17.37
2023-07-29T03:01:12.765Z,17.39
2023-07-29T03:03:17.263Z,17.42
2023-07-29T03:05:20.526Z,17.43
2023-07-29T03:07:23.576Z,17.44
2023-07-29T03:09:26.715Z,17.45
2023-07-29T03:11:29.751Z,17.46
2023-07-29T03:13:32.785Z,17.47
2023-07-29T03:15:36.243Z,17.47
2023-07-29T03:17:38.349Z,17.48
2023-07-29T03:19:42.780Z,17.48
2023-07-29T03:21:46.975Z,17.48
2023-07-29T03:23:50.059Z,17.48
2023-07-29T03:25:57.632Z,17.48
2023-07-29T03:27:59.828Z,17.47
2023-07-29T03:30:02.870Z,17.48
2023-07-29T03:32:07.285Z,17.48
2023-07-29T03:34:12.238Z,17.47
2023-07-29T03:36:17.127Z,17.46
2023-07-29T03:38:20.364Z,17.47
2023-07-29T03:40:23.624Z,17.47
2023-07-29T03:42:26.615Z,17.46
2023-07-29T03:44:29.676Z,17.46
2023-07-29T03:46:33.431Z,17.46
2023-07-29T03:48:35.684Z,17.47
2023-07-29T03:50:38.871Z,17.47
2023-07-29T03:52:43.673Z,17.47
2023-07-29T03:54:46.845Z,17.46
2023-07-29T03:56:49.973Z,17.47
2023-07-29T03:58:53.049Z,17.48
2023-07-29T04:00:56.164Z,17.50
2023-07-29T04:02:59.219Z,17.51
2023-07-29T04:05:02.373Z,17.53
2023-07-29T04:07:06.037Z,17.55
2023-07-29T04:09:10.480Z,17.56
2023-07-29T04:11:12.815Z,17.57
2023-07-29T04:13:15.829Z,17.59
2023-07-29T04:15:18.903Z,17.59
2023-07-29T04:17:22.077Z,17.62
2023-07-29T04:19:25.166Z,17.63
2023-07-29T04:21:28.387Z,17.65
2023-07-29T04:23:31.562Z,17.68
2023-07-29T04:25:35.953Z,17.69
2023-07-29T04:27:38.989Z,17.71
2023-07-29T04:29:42.224Z,17.72
2023-07-29T04:31:44.283Z,17.73
2023-07-29T04:33:47.353Z,17.73
2023-07-29T04:35:50.449Z,17.74
2023-07-29T04:37:53.457Z,17.74
2023-07-29T04:39:56.704Z,17.74
2023-07-29T04:42:02.047Z,17.75
2023-07-29T04:44:05.355Z,17.76
2023-07-29T04:46:10.150Z,17.79
2023-07-29T04:48:13.627Z,17.80
2023-07-29T04:50:16.888Z,17.81
2023-07-29T04:52:20.774Z,17.82
2023-07-29T04:54:23.876Z,17.84
2023-07-29T04:56:27.352Z,17.85
2023-07-29T04:58:30.958Z,17.85
2023-07-29T05:00:35.112Z,17.86
2023-07-29T05:02:38.265Z,17.86
2023-07-29T05:04:41.337Z,17.88
2023-07-29T05:06:44.451Z,17.89
2023-07-29T05:08:47.587Z,17.90
2023-07-29T05:10:51.605Z,17.90
2023-07-29T05:12:54.668Z,17.90
2023-07-29T05:14:59.077Z,17.91
2023-07-29T05:17:02.203Z,17.94
2023-07-29T05:19:05.474Z,18.00
2023-07-29T05:21:09.582Z,18.03
2023-07-29T05:23:11.811Z,18.07
2023-07-29T05:25:15.815Z,18.12
2023-07-29T05:27:18.845Z,18.16
2023-07-29T05:29:21.848Z,18.22
2023-07-29T05:31:26.451Z,18.25
2023-07-29T05:33:29.647Z,18.31
2023-07-29T05:35:32.891Z,18.36
2023-07-29T05:37:35.927Z,18.42
2023-07-29T05:39:39.099Z,18.48
2023-07-29T05:41:42.193Z,18.53
2023-07-29T05:43:46.402Z,18.60
2023-07-29T05:45:49.511Z,18.66
2023-07-29T05:47:55.326Z,18.71
2023-07-29T05:49:59.995Z,18.76
2023-07-29T05:52:04.490Z,18.80
2023-07-29T05:54:07.535Z,18.83
2023-07-29T05:56:11.521Z,18.85
2023-07-29T05:58:14.607Z,18.86
2023-07-29T06:00:17.888Z,18.86
2023-07-29T06:02:21.444Z,18.85
2023-07-29T06:04:25.846Z,18.85
2023-07-29T06:06:29.135Z,18.83
2023-07-29T06:08:35.357Z,18.81
2023-07-29T06:10:38.914Z,18.80
2023-07-29T06:12:41.994Z,18.81
2023-07-29T06:14:45.053Z,18.83
2023-07-29T06:16:48.257Z,18.86
2023-07-29T06:18:51.297Z,18.90
2023-07-29T06:20:55.729Z,18.94
2023-07-29T06:22:58.747Z,18.97
2023-07-29T06:25:00.913Z,18.99
2023-07-29T06:27:04.278Z,19.01
2023-07-29T06:29:07.475Z,19.01
2023-07-29T06:31:10.571Z,19.00
2023-07-29T06:33:13.761Z,18.99
2023-07-29T06:35:16.951Z,18.98
2023-07-29T06:37:21.569Z,18.97
2023-07-29T06:39:24.577Z,18.94
2023-07-29T06:41:27.592Z,18.93
2023-07-29T06:43:30.644Z,18.93
2023-07-29T06:45:33.667Z,18.94
2023-07-29T06:47:36.833Z,18.94
2023-07-29T06:49:39.895Z,18.96
2023-07-29T06:51:42.925Z,18.99
2023-07-29T06:53:47.408Z,19.04
2023-07-29T06:59:50.616Z,19.21
2023-07-29T07:01:54.711Z,19.27
2023-07-29T07:03:59.692Z,19.29
2023-07-29T07:06:03.039Z,19.29
2023-07-29T07:08:06.122Z,19.29
2023-07-29T07:10:11.125Z,19.26
2023-07-29T07:12:14.219Z,19.23
2023-07-29T07:14:17.846Z,19.21
2023-07-29T07:16:20.921Z,19.16
2023-07-29T07:18:23.496Z,19.14
2023-07-29T07:20:26.772Z,19.12
2023-07-29T07:22:29.741Z,19.09
2023-07-29T07:24:31.956Z,19.04
2023-07-29T07:26:36.636Z,19.03
2023-07-29T07:28:39.943Z,19.00
2023-07-29T07:30:43.644Z,18.99
2023-07-29T07:32:47.448Z,18.99
2023-07-29T07:34:50.552Z,18.99
2023-07-29T07:36:53.802Z,18.99
2023-07-29T07:38:57.256Z,18.99
2023-07-29T07:41:00.653Z,19.02
2023-07-29T07:43:05.241Z,19.07
2023-07-29T07:45:08.682Z,19.12
2023-07-29T07:47:10.776Z,19.16
2023-07-29T07:49:13.969Z,19.21
2023-07-29T07:51:17.923Z,19.22
2023-07-29T07:53:21.068Z,19.23
2023-07-29T07:55:24.064Z,19.25
2023-07-29T07:57:27.094Z,19.26
2023-07-29T07:59:31.512Z,19.24
2023-07-29T08:01:36.931Z,19.21
2023-07-29T08:03:40.045Z,19.18
2023-07-29T08:05:43.243Z,19.14
2023-07-29T08:07:46.371Z,19.12
2023-07-29T08:09:48.483Z,19.08
2023-07-29T08:11:51.543Z,19.06
2023-07-29T08:13:54.913Z,19.06
2023-07-29T08:15:59.494Z,19.08
2023-07-29T08:18:03.725Z,19.12
2023-07-29T08:20:07.919Z,19.14
2023-07-29T08:22:10.971Z,19.14
2023-07-29T08:24:13.936Z,19.13
2023-07-29T08:26:17.916Z,19.10
2023-07-29T08:28:20.980Z,19.08
2023-07-29T08:30:24.095Z,19.05
2023-07-29T08:32:28.547Z,19.04
2023-07-29T08:34:31.691Z,19.05
2023-07-29T08:36:35.114Z,19.07
2023-07-29T08:38:38.481Z,19.12
2023-07-29T08:40:47.333Z,19.17
2023-07-29T08:42:51.593Z,19.22
2023-07-29T08:44:56.961Z,19.27
2023-07-29T08:47:02.212Z,19.30
2023-07-29T08:49:06.185Z,19.35
2023-07-29T08:51:10.687Z,19.41
2023-07-29T08:53:15.103Z,19.50
2023-07-29T08:55:18.449Z,19.60
2023-07-29T08:57:22.928Z,19.67
2023-07-29T08:59:26.694Z,19.75
2023-07-29T09:01:31.809Z,19.82
2023-07-29T09:03:35.238Z,19.89
2023-07-29T09:05:39.819Z,19.98
2023-07-29T09:07:44.489Z,20.11
2023-07-29T09:09:47.532Z,20.20
2023-07-29T09:11:50.926Z,20.29
2023-07-29T09:13:54.158Z,20.37
2023-07-29T09:15:59.172Z,20.40
2023-07-29T09:18:11.873Z,20.43
2023-07-29T09:20:15.105Z,20.48
2023-07-29T09:22:23.245Z,20.53
2023-07-29T09:24:26.500Z,20.60
2023-07-29T09:26:30.426Z,20.65
2023-07-29T09:28:36.266Z,20.71
2023-07-29T09:30:40.281Z,20.76
2023-07-29T09:32:43.781Z,20.80
2023-07-29T09:34:46.888Z,20.87
2023-07-29T09:36:52.980Z,20.95
2023-07-29T09:38:58.232Z,21.07
2023-07-29T09:41:01.248Z,21.19
2023-07-29T09:43:05.149Z,21.34
2023-07-29T09:45:08.956Z,21.46
2023-07-29T09:47:11.932Z,21.59
2023-07-29T09:49:14.952Z,21.71
2023-07-29T09:51:18.258Z,21.85
2023-07-29T09:53:20.453Z,21.93
2023-07-29T09:55:25.767Z,22.07
2023-07-29T09:57:29.200Z,22.22
2023-07-29T09:59:35.104Z,22.44
2023-07-29T10:01:39.427Z,22.61
2023-07-29T10:03:43.370Z,22.69
2023-07-29T10:05:47.579Z,22.73
2023-07-29T10:07:50.689Z,22.74
2023-07-29T10:09:54.845Z,22.77
2023-07-29T10:11:59.719Z,22.82
2023-07-29T10:14:08.652Z,22.92
2023-07-29T10:16:13.226Z,23.04
2023-07-29T10:18:17.633Z,23.14
2023-07-29T10:20:20.671Z,23.23
2023-07-29T10:22:25.803Z,23.29
2023-07-29T10:24:34.572Z,23.33
2023-07-29T10:26:43.656Z,23.32
2023-07-29T10:28:50.231Z,23.29
2023-07-29T10:30:54.174Z,23.25
2023-07-29T10:33:00.081Z,23.27
2023-07-29T10:35:03.203Z,23.27
2023-07-29T10:37:06.688Z,23.19
2023-07-29T10:39:11.876Z,23.06
2023-07-29T10:41:14.909Z,22.95
2023-07-29T10:43:22.101Z,22.85
2023-07-29T10:45:26.842Z,22.77
2023-07-29T10:47:31.136Z,22.71
2023-07-29T10:49:36.590Z,22.65
2023-07-29T10:51:40.081Z,22.61
2023-07-29T10:53:43.135Z,22.55
2023-07-29T10:55:46.312Z,22.51
2023-07-29T10:57:48.802Z,22.47
2023-07-29T10:59:57.209Z,22.44
2023-07-29T11:02:02.752Z,22.42
2023-07-29T11:04:25.583Z,22.40
2023-07-29T11:06:28.931Z,22.41
2023-07-29T11:08:34.940Z,22.45
2023-07-29T11:10:45.807Z,22.50
2023-07-29T11:12:52.133Z,22.55
2023-07-29T11:14:54.380Z,22.69
2023-07-29T11:16:57.757Z,22.85
2023-07-29T11:19:02.701Z,23.01
2023-07-29T11:21:06.553Z,23.12
2023-07-29T11:23:09.663Z,23.22
2023-07-29T11:25:14.372Z,23.33
2023-07-29T11:27:17.455Z,23.37
2023-07-29T11:29:20.549Z,23.42
2023-07-29T11:31:23.660Z,23.50
2023-07-29T11:33:29.601Z,23.56
2023-07-29T11:35:34.587Z,23.63
2023-07-29T11:37:37.435Z,23.77
2023-07-29T11:39:42.320Z,23.91
2023-07-29T11:41:45.401Z,24.00
2023-07-29T11:43:48.438Z,24.08
2023-07-29T11:45:52.416Z,24.14
2023-07-29T11:47:55.730Z,24.16
2023-07-29T11:50:01.653Z,24.14
2023-07-29T11:52:08.960Z,24.12
2023-07-29T11:54:12.439Z,24.18
2023-07-29T11:56:15.509Z,24.26
2023-07-29T11:58:17.686Z,24.30
2023-07-29T12:00:21.094Z,24.29
2023-07-29T12:02:26.176Z,24.25
2023-07-29T12:04:29.536Z,24.21
2023-07-29T12:06:32.886Z,24.19
2023-07-29T12:08:37.499Z,24.23
2023-07-29T12:10:40.895Z,24.27
2023-07-29T12:12:48.330Z,24.33
2023-07-29T12:14:51.507Z,24.41
2023-07-29T12:16:54.712Z,24.52
2023-07-29T12:18:57.755Z,24.63
2023-07-29T12:21:01.044Z,24.75
2023-07-29T12:23:06.902Z,24.80
2023-07-29T12:25:11.557Z,24.83
2023-07-29T12:27:16.638Z,24.82
2023-07-29T12:29:21.751Z,24.84
2023-07-29T12:31:32.341Z,24.92
2023-07-29T12:33:38.727Z,24.99
2023-07-29T12:35:42.137Z,25.01
2023-07-29T12:37:45.144Z,25.03
2023-07-29T12:39:52.260Z,25.07
2023-07-29T12:41:57.812Z,25.09
2023-07-29T12:43:59.810Z,25.08
2023-07-29T12:46:02.850Z,25.09
2023-07-29T12:48:06.088Z,25.16
2023-07-29T12:50:10.030Z,25.21
2023-07-29T12:52:13.093Z,25.29
2023-07-29T12:54:16.402Z,25.36
2023-07-29T12:56:19.450Z,25.44
2023-07-29T12:58:23.777Z,25.55
2023-07-29T13:00:27.470Z,25.61
2023-07-29T13:02:29.548Z,25.58
2023-07-29T13:04:32.689Z,25.43
2023-07-29T13:06:35.757Z,25.22
2023-07-29T13:08:38.975Z,25.01
2023-07-29T13:10:41.955Z,24.80
2023-07-29T13:12:44.984Z,24.68
2023-07-29T13:14:49.340Z,24.78
2023-07-29T13:16:52.418Z,24.95
2023-07-29T13:18:55.424Z,25.12
2023-07-29T13:20:58.464Z,25.30
2023-07-29T13:23:01.422Z,25.50
2023-07-29T13:25:04.786Z,25.73
2023-07-29T13:27:08.175Z,25.96
2023-07-29T13:29:11.331Z,26.08
2023-07-29T13:31:15.762Z,26.06
2023-07-29T13:33:18.960Z,26.04
2023-07-29T13:35:22.072Z,26.00
2023-07-29T13:37:25.024Z,25.87
2023-07-29T13:39:28.505Z,25.78
2023-07-29T13:41:31.525Z,25.83
2023-07-29T13:43:34.476Z,25.99
2023-07-29T13:45:37.556Z,26.06
2023-07-29T13:47:41.935Z,25.99
2023-07-29T13:49:44.896Z,25.92
2023-07-29T13:51:47.927Z,25.78
2023-07-29T13:53:50.921Z,25.64
2023-07-29T13:55:53.869Z,25.61
2023-07-29T13:57:56.906Z,25.63
2023-07-29T13:59:59.989Z,25.62
2023-07-29T14:02:02.949Z,25.57
2023-07-29T14:04:07.473Z,25.50
2023-07-29T14:06:10.490Z,25.48
2023-07-29T14:08:13.931Z,25.41
2023-07-29T14:10:17.085Z,25.29
2023-07-29T14:12:20.096Z,25.11
2023-07-29T14:14:23.371Z,25.04
2023-07-29T14:16:26.341Z,25.17
2023-07-29T14:18:29.332Z,25.35
2023-07-29T14:20:33.949Z,25.57
2023-07-29T14:22:37.777Z,25.81
2023-07-29T14:24:40.752Z,26.09
2023-07-29T14:26:43.803Z,26.40
2023-07-29T14:28:46.790Z,26.75
2023-07-29T14:30:49.767Z,27.13
2023-07-29T14:32:52.828Z,27.51
2023-07-29T14:34:55.844Z,27.71
2023-07-29T14:37:00.162Z,27.64
2023-07-29T14:39:03.217Z,27.40
2023-07-29T14:41:05.668Z,27.11
2023-07-29T14:43:08.692Z,26.97
2023-07-29T14:45:12.504Z,26.93
2023-07-29T14:47:15.678Z,26.97
2023-07-29T14:49:18.782Z,26.95
2023-07-29T14:51:21.846Z,26.87
2023-07-29T14:53:26.409Z,26.73
2023-07-29T14:55:29.486Z,26.59
2023-07-29T14:57:32.781Z,26.66
2023-07-29T14:59:36.024Z,26.83
2023-07-29T15:01:39.285Z,27.08
2023-07-29T15:03:44.967Z,27.38
2023-07-29T15:05:49.766Z,27.74
2023-07-29T15:07:52.928Z,28.06
2023-07-29T15:09:57.393Z,28.27
2023-07-29T15:12:00.682Z,28.51
2023-07-29T15:14:04.348Z,28.77
2023-07-29T15:16:08.684Z,29.03
2023-07-29T15:18:12.528Z,29.28
2023-07-29T15:20:16.779Z,29.43
2023-07-29T15:22:20.803Z,29.45
2023-07-29T15:24:22.803Z,29.27
2023-07-29T15:26:27.163Z,29.13
2023-07-29T15:28:30.164Z,29.22
2023-07-29T15:30:33.195Z,29.35
2023-07-29T15:32:36.240Z,29.48
2023-07-29T15:34:39.264Z,29.47
2023-07-29T15:36:42.246Z,29.32
2023-07-29T15:38:45.228Z,29.25
2023-07-29T15:40:50.069Z,29.25
2023-07-29T15:42:54.415Z,29.08
2023-07-29T15:44:57.433Z,28.70
2023-07-29T15:47:00.764Z,28.25
2023-07-29T15:49:03.758Z,27.79
2023-07-29T15:51:05.752Z,27.35
2023-07-29T15:53:08.737Z,26.96
2023-07-29T15:55:11.952Z,26.59
2023-07-29T15:57:14.915Z,26.26
2023-07-29T15:59:19.259Z,25.92
2023-07-29T16:01:23.162Z,25.62
2023-07-29T16:03:26.580Z,25.32
2023-07-29T16:05:29.783Z,25.06
2023-07-29T16:07:32.742Z,24.80
2023-07-29T16:09:35.737Z,24.46
2023-07-29T16:11:40.068Z,24.08
2023-07-29T16:13:43.867Z,23.63
2023-07-29T16:15:48.978Z,23.17
2023-07-29T16:17:54.421Z,22.77
2023-07-29T16:20:01.394Z,22.35
2023-07-29T16:22:05.259Z,21.90
2023-07-29T16:24:10.107Z,21.52
2023-07-29T16:26:14.693Z,21.18
2023-07-29T16:28:20.470Z,20.88
2023-07-29T16:30:24.546Z,20.62
2023-07-29T16:32:30.070Z,20.39
2023-07-29T16:34:34.102Z,20.17
2023-07-29T16:36:38.548Z,19.94
2023-07-29T16:38:43.011Z,19.77
2023-07-29T16:41:01.604Z,19.62
2023-07-29T16:43:10.939Z,19.49
2023-07-29T16:45:14.099Z,19.39
2023-07-29T16:47:18.423Z,19.31
2023-07-29T16:49:23.850Z,19.25
2023-07-29T16:51:30.321Z,19.21
2023-07-29T16:53:33.885Z,19.16
2023-07-29T16:55:36.856Z,19.13
2023-07-29T16:57:40.098Z,19.08
2023-07-29T16:59:43.081Z,19.03
2023-07-29T17:01:45.056Z,19.01
2023-07-29T17:03:48.087Z,18.99
2023-07-29T17:05:56.395Z,18.99
2023-07-29T17:07:59.391Z,18.99
2023-07-29T17:10:02.007Z,19.00
2023-07-29T17:12:05.852Z,18.99
2023-07-29T17:14:08.833Z,19.00
2023-07-29T17:16:11.805Z,18.98
2023-07-29T17:18:14.789Z,18.97
2023-07-29T17:20:19.043Z,18.93
2023-07-29T17:22:23.504Z,18.87
2023-07-29T17:24:26.516Z,18.84
2023-07-29T17:26:29.557Z,18.80
2023-07-29T17:28:32.616Z,18.79
2023-07-29T17:30:36.979Z,18.77
2023-07-29T17:32:39.995Z,18.75
2023-07-29T17:34:42.010Z,18.74
2023-07-29T17:36:44.984Z,18.72
2023-07-29T17:38:49.274Z,18.70
2023-07-29T17:40:53.480Z,18.71
2023-07-29T17:42:56.624Z,18.71
2023-07-29T17:44:59.611Z,18.74
2023-07-29T17:47:02.634Z,18.75
2023-07-29T17:49:05.752Z,18.76
2023-07-29T17:51:08.750Z,18.78
2023-07-29T17:53:11.724Z,18.80
2023-07-29T17:55:16.280Z,18.81
2023-07-29T17:57:19.242Z,18.83
2023-07-29T17:59:22.230Z,18.84
2023-07-29T18:01:25.419Z,18.86
2023-07-29T18:03:28.455Z,18.87
2023-07-29T18:05:31.577Z,18.88
2023-07-29T18:07:34.878Z,18.86
2023-07-29T18:09:38.224Z,18.84
2023-07-29T18:11:43.123Z,18.80
2023-07-29T18:13:46.468Z,18.78
2023-07-29T18:15:53.354Z,18.75
2023-07-29T18:17:56.535Z,18.71
2023-07-29T18:20:00.629Z,18.67
2023-07-29T18:22:03.751Z,18.62
2023-07-29T18:24:07.682Z,18.59
2023-07-29T18:31:45.448Z,18.45
2023-07-29T18:36:42.078Z,18.38
2023-07-29T18:38:47.755Z,18.37
2023-07-29T18:40:51.274Z,18.34
2023-07-29T18:42:54.886Z,18.34
2023-07-29T18:44:58.563Z,18.32
2023-07-29T18:47:03.653Z,18.32
2023-07-29T18:49:09.269Z,18.30
2023-07-29T18:51:13.266Z,18.29
2023-07-29T18:53:16.560Z,18.29
2023-07-29T18:55:20.036Z,18.28
2023-07-29T18:57:23.645Z,18.30
2023-07-29T18:59:26.671Z,18.30
2023-07-29T19:01:28.932Z,18.32
2023-07-29T19:03:33.443Z,18.31
2023-07-29T19:05:36.886Z,18.29
2023-07-29T19:07:40.216Z,18.26
2023-07-29T19:09:45.910Z,18.23
2023-07-29T19:11:54.462Z,18.20
2023-07-29T19:14:04.877Z,18.13
2023-07-29T19:16:12.430Z,18.08
2023-07-29T19:18:20.874Z,18.03
2023-07-29T19:20:26.852Z,17.98
2023-07-29T19:22:32.764Z,17.95
2023-07-29T19:24:37.077Z,17.92
2023-07-29T19:26:43.804Z,17.89
2023-07-29T19:28:53.982Z,17.87
2023-07-29T19:31:11.354Z,17.86
2023-07-29T19:33:27.180Z,17.84
2023-07-29T19:35:34.540Z,17.81
2023-07-29T19:37:41.447Z,17.80
2023-07-29T19:39:49.782Z,17.77
2023-07-29T19:41:54.261Z,17.73
2023-07-29T19:44:08.691Z,17.70
2023-07-29T19:46:38.445Z,17.68
2023-07-29T19:48:44.825Z,17.64
2023-07-29T19:50:52.871Z,17.61
2023-07-29T19:53:00.220Z,17.59
2023-07-29T19:55:04.754Z,17.56
2023-07-29T19:57:19.154Z,17.53
2023-07-29T19:59:28.471Z,17.51
2023-07-29T20:01:38.653Z,17.50
2023-07-29T20:03:44.682Z,17.49
2023-07-29T20:05:50.637Z,17.48
2023-07-29T20:07:55.042Z,17.46
2023-07-29T20:09:59.537Z,17.43
2023-07-29T20:12:03.808Z,17.41
2023-07-29T20:14:08.027Z,17.39
2023-07-29T20:16:12.149Z,17.36
2023-07-29T20:18:16.425Z,17.34
2023-07-29T20:20:23.509Z,17.30
2023-07-29T20:22:29.601Z,17.29
2023-07-29T20:24:35.616Z,17.26
2023-07-29T20:26:39.744Z,17.22
2023-07-29T20:28:43.110Z,17.19
2023-07-29T20:30:53.585Z,17.17
2023-07-29T20:32:57.631Z,17.15
2023-07-29T20:35:01.363Z,17.12
2023-07-29T20:37:05.491Z,17.08
2023-07-29T20:39:09.914Z,17.03
2023-07-29T20:41:16.970Z,16.98
2023-07-29T20:43:20.259Z,16.92
2023-07-29T20:45:26.364Z,16.89
2023-07-29T20:47:30.559Z,16.85
2023-07-29T20:49:34.558Z,16.81
2023-07-29T20:51:38.985Z,16.77
2023-07-29T20:53:44.922Z,16.73
2023-07-29T20:55:49.036Z,16.71
2023-07-29T20:57:56.626Z,16.68
2023-07-29T21:00:01.796Z,16.65
2023-07-29T21:02:07.380Z,16.59
2023-07-29T21:04:11.414Z,16.55
2023-07-29T21:06:15.550Z,16.52
2023-07-29T21:08:19.687Z,16.49
2023-07-29T21:10:23.948Z,16.47
2023-07-29T21:12:28.133Z,16.45
2023-07-29T21:14:33.641Z,16.43
2023-07-29T21:16:37.523Z,16.42
2023-07-29T21:18:41.617Z,16.40
2023-07-29T21:20:46.563Z,16.40
2023-07-29T21:22:50.681Z,16.41
2023-07-29T21:24:54.784Z,16.44
2023-07-29T21:26:59.195Z,16.44
2023-07-29T21:29:04.131Z,16.45
2023-07-29T21:31:10.283Z,16.48
2023-07-29T21:33:15.692Z,16.49
2023-07-29T21:35:19.933Z,16.50
2023-07-29T21:37:35.864Z,16.52
2023-07-29T21:39:41.318Z,16.51
2023-07-29T21:41:46.732Z,16.50
2023-07-29T21:43:49.602Z,16.47
2023-07-29T21:45:53.937Z,16.46
2023-07-29T21:47:59.813Z,16.44
2023-07-29T21:50:05.281Z,16.40
2023-07-29T21:52:09.625Z,16.40
2023-07-29T21:54:13.528Z,16.38
2023-07-29T21:56:17.922Z,16.37
2023-07-29T21:58:22.283Z,16.35
2023-07-29T22:00:26.785Z,16.33
2023-07-29T22:02:31.258Z,16.33
2023-07-29T22:04:36.965Z,16.31
2023-07-29T22:06:40.806Z,16.29
2023-07-29T22:08:44.934Z,16.25
2023-07-29T22:10:48.660Z,16.24
2023-07-29T22:12:52.517Z,16.21
2023-07-29T22:14:56.510Z,16.19
2023-07-29T22:17:00.631Z,16.17
2023-07-29T22:19:04.774Z,16.14
2023-07-29T22:21:09.888Z,16.12
2023-07-29T22:23:14.265Z,16.10
2023-07-29T22:25:18.179Z,16.08
2023-07-29T22:27:25.425Z,16.07
2023-07-29T22:29:29.530Z,16.05
2023-07-29T22:31:33.662Z,16.04
2023-07-29T22:33:37.876Z,16.04
2023-07-29T22:35:43.007Z,16.01
2023-07-29T22:37:48.572Z,16.01
2023-07-29T22:39:53.640Z,16.01
2023-07-29T22:41:57.920Z,16.00
2023-07-29T22:44:01.824Z,16.00
2023-07-29T22:46:06.159Z,16.02
2023-07-29T22:48:10.461Z,16.03
2023-07-29T22:50:17.642Z,16.03
2023-07-29T22:52:21.210Z,16.04
2023-07-29T22:54:27.187Z,16.04
2023-07-29T22:56:32.423Z,16.05
2023-07-29T22:58:36.444Z,16.04
2023-07-29T23:00:40.602Z,16.03
2023-07-29T23:02:44.673Z,16.03
2023-07-29T23:04:49.020Z,16.03
2023-07-29T23:06:56.377Z,16.03
2023-07-29T23:09:01.607Z,16.04
2023-07-29T23:11:10.007Z,16.03
2023-07-29T23:13:12.839Z,16.05
2023-07-29T23:15:18.686Z,16.07
2023-07-29T23:17:23.093Z,16.09
2023-07-29T23:19:27.821Z,16.09
2023-07-29T23:21:32.088Z,16.12
2023-07-29T23:23:36.763Z,16.14
2023-07-29T23:25:40.979Z,16.15
2023-07-29T23:27:46.395Z,16.17
2023-07-29T23:29:50.805Z,16.19
2023-07-29T23:31:56.850Z,16.20
2023-07-29T23:34:01.082Z,16.22
2023-07-29T23:36:05.613Z,16.24
2023-07-29T23:38:09.421Z,16.25
2023-07-29T23:40:12.420Z,16.27
2023-07-29T23:42:16.115Z,16.27
2023-07-29T23:44:21.553Z,16.27
2023-07-29T23:46:28.344Z,16.27
2023-07-29T23:48:32.203Z,16.27
2023-07-29T23:50:37.615Z,16.28
2023-07-29T23:52:41.451Z,16.30
2023-07-29T23:54:45.206Z,16.31
2023-07-29T23:56:48.254Z,16.31
2023-07-29T23:58:53.153Z,16.32
